Terminal Aerodrome Forecast
Issued by NWS Greer, SC

Home | Current Version | Previous Version | Text Only | Print | Product List | Glossary On
Versions: 1 2 3 4 5 6 7 8 9 10 11 12 13 14 15 16 17 18 19 20 21 22 23 24 25 26 27 28 29 30 31 32 33 34 35 36 37 38 39 40 41 42 43 44 45 46 47 48
000
FTUS42 KGSP 301730
TAFCLT
TAF
KCLT 301730Z 3018/3118 31004KT P6SM VCSH BKN050
      TEMPO 3019/3022 VRB10G20KT 4SM TSRA BKN040CB
     FM310100 29003KT P6SM BKN070
     FM310500 34007KT P6SM BKN060
     FM310800 01009KT P6SM SCT060=

USA.gov is the U.S. government's official web portal to all federal, state and local government web resources and services.